• Join FlightAware (Why Join?)
  • Login
  • US Flag 
08:05AM EDT


 

Airport Tracker/Info


-or-


 

Live Flight TrackerFlight Track Log ✈ EJA922 ✈ 19-Jun-2013 ✈ KBOS - KPHX

Flight Track Log - Related Links

Times and Time Zones

All times are in EDT time to prevent confusion due to time zone crossing. See the EJA922 flight status page for this flight to view local times or setup timezone preferences in your user account.

Time Position Orientation Groundspeed Altitude Reporting Facility
EDT Latitude Longitude Course Direction KTS MPH feet Rate Location/Type
07:31PM 42.3667 -70.9833 79° East 179 206 600  Level KA90
07:32PM 42.3833 -70.8667 79° East 239 275 4,700 2,400 Climbing KA90
07:34PM 42.3817 -70.7564 91° East 283 326 7,100 2,160 Climbing Boston Center
07:35PM 42.3144 -70.7189 158° South 233 268 9,800 2,100 Climbing Boston Center
07:36PM 42.2614 -70.8047 230° Southwest 178 205 11,300 1,920 Climbing Boston Center
07:37PM 42.2611 -70.9336 270° West 263 303 13,700 2,400 Climbing Boston Center
07:38PM 42.2631 -71.0794 271° West 335 386 16,100 2,100 Climbing Boston Center
07:39PM 42.2664 -71.2000 272° West 357 411 18,000 1,860 Climbing Boston Center
07:40PM 42.2742 -71.3375 274° West 371 427 19,900 1,800 Climbing Boston Center
07:41PM 42.2756 -71.4750 271° West 371 427 21,700 1,680 Climbing Boston Center
07:42PM 42.2764 -71.5983 271° West 366 421 23,300 1,800 Climbing Boston Center
07:43PM 42.2797 -71.7722 272° West 366 421 25,300 1,740 Climbing Boston Center
07:44PM 42.2806 -71.9492 270° West 385 443 27,200 1,500 Climbing Boston Center
07:45PM 42.2831 -72.1006 271° West 396 456 28,700 1,380 Climbing Boston Center
07:46PM 42.2856 -72.2522 271° West 401 461 30,000 1,560 Climbing Boston Center
07:47PM 42.2858 -72.4036 270° West 407 468 31,900 1,980 Climbing Boston Center
07:48PM 42.2878 -72.5467 271° West 398 458 34,000 1,920 Climbing Boston Center
07:49PM 42.2875 -72.6900 270° West 387 445 35,800 1,200 Climbing Boston Center
07:50PM 42.2872 -72.8358 270° West 382 440 36,400 480 Climbing Boston Center
07:51PM 42.2867 -72.9283 270° West 387 445 36,800 660 Climbing Boston Center
07:52PM 42.2753 -73.1247 266° West 402 463 37,800 1,140 Climbing Boston Center
07:53PM 42.2619 -73.2789 263° West 415 478 39,100 1,380 Climbing Boston Center
07:54PM 42.2525 -73.4161 265° West 402 463 40,600 900 Climbing Boston Center
07:55PM 42.2406 -73.5589 264° West 389 448 40,900 360 Climbing Boston Center
07:56PM 42.2267 -73.7103 263° West 395 455 41,400 420 Climbing Boston Center
07:57PM 42.2081 -73.8667 261° West 414 476 41,800 360 Climbing Boston Center
07:58PM 42.1956 -74.0178 264° West 419 482 42,200 360 Climbing Boston Center
07:59PM 42.1808 -74.1717 263° West 419 482 42,600 240 Climbing Boston Center
08:01PM 42.1450 -74.5303 262° West 405 466 43,000 60 Climbing New York Center
08:02PM 42.1297 -74.6803 262° West 411 473 43,000  Level New York Center
08:03PM 42.1139 -74.8358 262° West 418 481 43,000  Level New York Center
08:04PM 42.1008 -74.9775 263° West 423 487 43,000  Level New York Center
08:05PM 42.0825 -75.1383 261° West 428 493 43,000  Level New York Center
08:06PM 42.0639 -75.2964 261° West 428 493 43,000  Level New York Center
08:07PM 42.0125 -75.4436 245° Southwest 428 493 43,000  Level New York Center
08:08PM 41.9589 -75.5903 244° Southwest 434 499 43,000  Level New York Center
08:09PM 41.9047 -75.7425 244° Southwest 446 513 43,000  Level New York Center
08:10PM 41.8769 -75.9019 257° West 446 513 43,000  Level New York Center
08:11PM 41.8553 -76.0644 260° West 446 513 43,000  Level New York Center
08:12PM 41.8333 -76.2269 260° West 446 513 43,000  Level New York Center
08:13PM 41.8092 -76.3919 259° West 446 513 43,000  Level New York Center
08:14PM 41.7889 -76.5517 260° West 446 513 43,000  Level New York Center
08:16PM 41.7483 -76.8256 259° West 445 512 43,000  Level Cleveland Center
08:17PM 41.7264 -76.9856 260° West 439 505 43,000  Level Cleveland Center
08:18PM 41.7003 -77.1511 258° West 445 512 43,000  Level Cleveland Center
08:19PM 41.6778 -77.3136 260° West 451 519 43,000  Level Cleveland Center
08:20PM 41.6531 -77.4761 259° West 451 519 43,000  Level Cleveland Center
08:21PM 41.6261 -77.6386 258° West 451 519 43,000  Level Cleveland Center
08:22PM 41.6011 -77.7981 258° West 451 519 43,000  Level Cleveland Center
08:23PM 41.5794 -77.9486 259° West 457 526 43,000  Level Cleveland Center
08:24PM 41.5539 -78.1108 258° West 457 526 43,000  Level Cleveland Center
08:25PM 41.5283 -78.2753 258° West 452 520 43,000  Level Cleveland Center
08:26PM 41.5022 -78.4400 258° West 452 520 43,000  Level Cleveland Center
08:27PM 41.4781 -78.5986 259° West 452 520 43,000  Level Cleveland Center
08:28PM 41.4494 -78.7631 257° West 452 520 43,000  Level Cleveland Center
08:29PM 41.4228 -78.9272 258° West 452 520 43,000  Level Cleveland Center
08:30PM 41.3978 -79.0939 259° West 452 520 43,000  Level Cleveland Center
08:31PM 41.3647 -79.2744 256° West 452 520 43,000  Level Cleveland Center
08:32PM 41.3411 -79.4161 258° West 446 513 43,000  Level Cleveland Center
08:33PM 41.3136 -79.5825 258° West 456 525 43,000  Level Cleveland Center
08:34PM 41.2817 -79.7681 257° West 456 525 43,000  Level Cleveland Center
08:35PM 41.2536 -79.9314 257° West 461 531 43,000  Level Cleveland Center
08:36PM 41.2292 -80.0778 258° West 461 531 43,000  Level Cleveland Center
08:37PM 41.1986 -80.2436 256° West 461 531 43,000  Level Cleveland Center
08:38PM 41.1678 -80.4122 256° West 461 531 43,000  Level Cleveland Center
08:39PM 41.1344 -80.5914 256° West 466 536 43,000  Level Cleveland Center
08:40PM 41.1094 -80.7375 257° West 466 536 43,000  Level Cleveland Center
08:41PM 41.0797 -80.9028 257° West 461 531 43,000  Level Cleveland Center
08:42PM 41.0436 -81.0869 255° West 467 537 43,000  Level Cleveland Center
08:43PM 41.0117 -81.2517 256° West 467 537 43,000  Level Cleveland Center
08:44PM 40.9814 -81.4111 256° West 467 537 43,000  Level Cleveland Center
08:45PM 40.9531 -81.5592 256° West 467 537 43,000  Level Cleveland Center
08:46PM 40.9225 -81.7236 256° West 467 537 43,000  Level Cleveland Center
08:47PM 40.8914 -81.8878 256° West 467 537 43,000  Level Cleveland Center
08:48PM 40.8603 -82.0492 256° West 462 532 43,000  Level Cleveland Center
08:49PM 40.8339 -82.1883 256° West 460 529 43,000  Level Indianapolis Center
08:50PM 40.7964 -82.3808 256° West 459 528 43,000  Level Indianapolis Center
08:51PM 40.7631 -82.5458 255° West 461 531 43,000  Level Indianapolis Center
08:52PM 40.7306 -82.7106 255° West 461 531 43,000  Level Indianapolis Center
08:53PM 40.6975 -82.8758 255° West 461 531 43,000  Level Indianapolis Center
08:54PM 40.6636 -83.0406 255° West 462 532 43,000  Level Indianapolis Center
08:55PM 40.6292 -83.2069 255° West 459 528 43,000  Level Indianapolis Center
08:56PM 40.5947 -83.3708 255° West 461 531 43,000  Level Indianapolis Center
08:58PM 40.5701 -83.6022 262° West  Level FlightAware Approximate
08:58PM 40.5436 -83.7528 262° West 461 531 43,000  Level Chicago Center
08:59PM 40.5314 -83.8744 263° West 464 534 43,000  Level Indianapolis Center
09:00PM 40.5147 -84.0431 263° West 465 535 43,000  Level Indianapolis Center
09:01PM 40.4939 -84.2400 262° West 464 534 43,000  Level Indianapolis Center
09:02PM 40.4761 -84.4108 262° West 470 541 43,000  Level Indianapolis Center
09:03PM 40.4592 -84.5808 263° West 469 540 43,000  Level Indianapolis Center
09:04PM 40.4414 -84.7506 262° West 468 539 43,000  Level Indianapolis Center
09:05PM 40.4208 -84.9236 261° West 465 535 43,000  Level Indianapolis Center
09:06PM 40.4025 -85.0903 262° West 464 534 43,000  Level Indianapolis Center
09:07PM 40.3839 -85.2556 262° West 461 531 43,000  Level Indianapolis Center
09:08PM 40.3661 -85.4219 262° West 463 533 43,000  Level Indianapolis Center
09:09PM 40.3464 -85.5867 261° West 461 531 43,000  Level Indianapolis Center
09:10PM 40.3275 -85.7525 262° West 462 532 43,000  Level Indianapolis Center
09:11PM 40.3042 -85.9511 261° West 465 535 43,000  Level Indianapolis Center
09:12PM 40.2844 -86.1161 261° West 462 532 43,000  Level Indianapolis Center
09:13PM 40.2650 -86.2814 261° West 464 534 43,000  Level Indianapolis Center
09:14PM 40.2444 -86.4464 261° West 464 534 43,000  Level Indianapolis Center
09:15PM 40.2242 -86.6092 261° West 459 528 43,000  Level Indianapolis Center
09:16PM 40.2042 -86.7719 261° West 458 527 43,000  Level Indianapolis Center
09:17PM 40.1833 -86.9344 261° West 457 526 43,000  Level Indianapolis Center
09:18PM 40.1581 -87.1294 260° West 456 525 43,000  Level Indianapolis Center
09:19PM 40.1369 -87.2947 261° West 462 532 43,000  Level Indianapolis Center
09:20PM 40.1147 -87.4606 260° West 466 536 43,000  Level Indianapolis Center
09:21PM 40.0936 -87.6269 261° West 466 536 43,000  Level Indianapolis Center
09:22PM 40.0700 -87.7944 260° West 471 542 43,000  Level Indianapolis Center
09:23PM 40.0578 -87.8950 261° West 469 540 43,000  Level Chicago Center
09:24PM 40.0336 -88.0636 259° West 474 545 43,000  Level Chicago Center
09:25PM 40.0097 -88.2381 260° West 472 543 43,000  Level Chicago Center
09:26PM 39.9875 -88.3767 258° West 473 544 43,000  Level Kansas City Center
09:27PM 39.9650 -88.5444 260° West 472 543 43,000  Level Kansas City Center
09:28PM 39.9436 -88.7089 260° West 466 536 43,000  Level Kansas City Center
09:29PM 39.9194 -88.8756 259° West 467 537 43,000  Level Kansas City Center
09:30PM 39.8944 -89.0422 259° West 467 537 43,000  Level Kansas City Center
09:31PM 39.8706 -89.2078 259° West 466 536 43,000  Level Kansas City Center
09:32PM 39.8469 -89.3714 259° West 462 532 43,000  Level Kansas City Center
09:33PM 39.8211 -89.5375 259° West 466 536 43,000  Level Kansas City Center
09:34PM 39.7964 -89.7031 259° West 465 535 43,000  Level Kansas City Center
09:35PM 39.7661 -89.9036 259° West 468 539 43,000  Level Kansas City Center
09:36PM 39.7406 -90.0667 259° West 464 534 43,000  Level Kansas City Center
09:37PM 39.7167 -90.2225 259° West 465 535 43,000  Level Kansas City Center
09:38PM 39.6903 -90.3831 258° West 462 532 43,000  Level Kansas City Center
09:39PM 39.6650 -90.5456 259° West 461 531 43,000  Level Kansas City Center
09:40PM 39.6389 -90.7069 258° West 461 531 43,000  Level Kansas City Center
09:41PM 39.6075 -90.8994 258° West 459 528 43,000  Level Kansas City Center
09:42PM 39.5800 -91.0611 258° West 460 529 43,000  Level Kansas City Center
09:43PM 39.5525 -91.2236 258° West 462 532 43,000  Level Kansas City Center
09:44PM 39.5250 -91.3869 258° West 464 534 43,000  Level Kansas City Center
09:45PM 39.4981 -91.5489 258° West 464 534 43,000  Level Kansas City Center
09:46PM 39.4706 -91.7103 258° West 463 533 43,000  Level Kansas City Center
09:47PM 39.4428 -91.8717 257° West 462 532 43,000  Level Kansas City Center
09:48PM 39.4097 -92.0642 258° West 461 531 43,000  Level Kansas City Center
09:49PM 39.3817 -92.2233 257° West 458 527 43,000  Level Kansas City Center
09:50PM 39.3533 -92.3839 257° West 459 528 43,000  Level Kansas City Center
09:52PM 39.3227 -92.5566 257° West  Level FlightAware Approximate
09:52PM 39.2892 -92.7361 257° West 460 529 43,000  Level Kansas City Center
09:54PM 39.2594 -92.8992 257° West 466 536 43,000  Level Kansas City Center
09:55PM 39.2297 -93.0589 257° West 465 535 43,000  Level Kansas City Center
09:56PM 39.2003 -93.2214 257° West 466 536 43,000  Level Kansas City Center
09:57PM 39.1697 -93.3833 256° West 467 537 43,000  Level Kansas City Center
09:58PM 39.1411 -93.5422 257° West 465 535 43,000  Level Kansas City Center
09:59PM 39.1067 -93.7236 256° West 467 537 43,000  Level Kansas City Center
10:00PM 39.0758 -93.8775 256° West 464 534 43,000  Level Kansas City Center
10:01PM 39.0414 -94.0592 256° West 469 540 43,000  Level Kansas City Center
10:02PM 39.0114 -94.2131 256° West 466 536 43,000  Level Kansas City Center
10:03PM 38.9800 -94.3686 255° West 468 539 43,000  Level Kansas City Center
10:04PM 38.9447 -94.5503 256° West 468 539 43,000  Level Kansas City Center
10:05PM 38.9125 -94.7081 255° West 474 545 43,000  Level Kansas City Center
10:06PM 38.8761 -94.8908 256° West 472 543 43,000  Level Kansas City Center
10:07PM 38.8444 -95.0475 255° West 471 542 43,000  Level Kansas City Center
10:08PM 38.8128 -95.2042 256° West 470 541 43,000  Level Kansas City Center
10:09PM 38.7753 -95.3864 255° West 468 539 43,000  Level Kansas City Center
10:10PM 38.7442 -95.5419 256° West 468 539 43,000  Level Kansas City Center
10:11PM 38.7117 -95.6964 255° West 468 539 43,000  Level Kansas City Center
10:12PM 38.6747 -95.8758 255° West 467 537 43,000  Level Kansas City Center
10:13PM 38.6422 -96.0300 255° West 466 536 43,000  Level Kansas City Center
10:14PM 38.6089 -96.1806 254° West 462 532 43,000  Level Kansas City Center
10:15PM 38.5711 -96.3578 255° West 461 531 43,000 300 Level Kansas City Center
10:16PM 38.5383 -96.5050 254° West 451 519 43,700 960 Climbing Kansas City Center
10:17PM 38.5028 -96.6706 255° West 435 501 45,000 600 Climbing Kansas City Center
10:18PM 38.4686 -96.8244 254° West 438 504 45,000  Level Kansas City Center
10:19PM 38.4383 -96.9639 255° West 453 521 45,000  Level Kansas City Center
10:20PM 38.4028 -97.1203 254° West 459 528 45,000  Level Kansas City Center
10:21PM 38.3683 -97.2783 255° West 463 533 45,000  Level Kansas City Center
10:22PM 38.3258 -97.4653 254° West 461 531 45,000  Level Kansas City Center
10:23PM 38.2897 -97.6225 254° West 464 534 45,000 -300 Level Kansas City Center
10:24PM 38.2556 -97.7761 254° West 458 527 44,500 -1,020 Descending Kansas City Center
10:25PM 38.2206 -97.9261 254° West 449 517 43,000 -780 Descending Kansas City Center
10:26PM 38.1872 -98.0717 254° West 436 502 43,000  Level Kansas City Center
10:27PM 38.1522 -98.2197 253° West 442 509 43,000  Level Kansas City Center
10:28PM 38.1106 -98.3975 253° West 442 509 43,000  Level Kansas City Center
10:29PM 38.0753 -98.5461 253° West 442 509 43,000  Level Kansas City Center
10:30PM 38.0394 -98.6942 253° West 441 507 43,000  Level Kansas City Center
10:31PM 38.0044 -98.8411 253° West 438 504 43,000  Level Kansas City Center
10:32PM 37.9694 -98.9875 253° West 437 503 43,000  Level Kansas City Center
10:33PM 37.9333 -99.1328 253° West 434 499 43,000  Level Kansas City Center
10:34PM 37.8989 -99.2772 253° West 431 496 43,000  Level Kansas City Center
10:35PM 37.8636 -99.4189 253° West 425 489 43,000  Level Kansas City Center
10:36PM 37.8256 -99.5753 253° West 417 480 43,000  Level Kansas City Center
10:38PM 37.7861 -99.7286 252° West 411 473 43,000  Level Kansas City Center
10:39PM 37.7539 -99.8611 253° West 413 475 43,000  Level Kansas City Center
10:40PM 37.7197 -99.9944 252° West 415 478 43,000  Level Kansas City Center
10:41PM 37.6792 -100.1511 252° West 419 482 43,000  Level Kansas City Center
10:42PM 37.6450 -100.2842 252° West 417 480 43,000  Level Kansas City Center
10:43PM 37.6047 -100.4408 252° West 420 483 43,000  Level Kansas City Center
10:44PM 37.5717 -100.5689 252° West 420 483 43,000  Level Kansas City Center
10:45PM 37.5342 -100.7111 252° West 425 489 43,000  Level Kansas City Center
10:46PM 37.4892 -100.8767 251° West 432 497 43,000  Level Kansas City Center
10:47PM 37.4528 -101.0158 252° West 432 497 43,000  Level Kansas City Center
10:48PM 37.4183 -101.1514 252° West 426 490 43,000  Level Kansas City Center
10:49PM 37.3772 -101.3092 252° West 425 489 43,000  Level Kansas City Center
10:50PM 37.3408 -101.4461 252° West 429 494 43,000  Level Kansas City Center
10:51PM 37.2742 -101.5619 234° Southwest 431 496 43,000  Level Kansas City Center
10:52PM 37.1867 -101.6881 229° Southwest 429 494 43,000  Level Kansas City Center
10:53PM 37.1111 -101.7972 229° Southwest 433 498 43,000  Level Kansas City Center
10:54PM 37.0231 -101.9214 228° Southwest 429 494 43,000  Level Kansas City Center
10:55PM 36.9456 -102.0267 227° Southwest 429 494 43,000  Level Kansas City Center
10:56PM 36.8689 -102.1342 228° Southwest 432 497 43,000  Level Kansas City Center
10:57PM 36.7889 -102.2711 234° Southwest 433 498 43,000  Level Albuquerque Center
10:58PM 36.7378 -102.4394 249° West 434 499 43,000  Level Albuquerque Center
10:59PM 36.7056 -102.5856 255° West 439 505 43,000  Level Albuquerque Center
11:00PM 36.6714 -102.7306 254° West 450 518 43,000  Level Albuquerque Center
11:01PM 36.6319 -102.8986 254° West 453 521 43,000  Level Albuquerque Center
11:02PM 36.5981 -103.0403 253° West 455 524 43,000  Level Albuquerque Center
11:03PM 36.5633 -103.1917 254° West 454 522 43,000  Level Albuquerque Center
11:04PM 36.5264 -103.3422 253° West 453 521 43,000  Level Albuquerque Center
11:05PM 36.4908 -103.4944 254° West 455 524 43,000  Level Albuquerque Center
11:06PM 36.4539 -103.6447 253° West 454 522 43,000  Level Albuquerque Center
11:07PM 36.4117 -103.8197 253° West 451 519 43,000  Level Albuquerque Center
11:08PM 36.3744 -103.9697 253° West 451 519 43,000  Level Albuquerque Center
11:09PM 36.3378 -104.1217 253° West 455 524 43,000  Level Albuquerque Center
11:10PM 36.2994 -104.2728 253° West 457 526 43,000  Level Albuquerque Center
11:11PM 36.2611 -104.4247 253° West 459 528 43,000  Level Albuquerque Center
11:12PM 36.2225 -104.5792 253° West 464 534 43,000  Level Albuquerque Center
11:14PM 36.1839 -104.7314 253° West 464 534 43,000  Level Albuquerque Center
11:15PM 36.1458 -104.8831 253° West 461 531 43,000  Level Albuquerque Center
11:16PM 36.1064 -105.0344 252° West 460 529 43,000  Level Albuquerque Center
11:17PM 36.0617 -105.2056 252° West 450 518 43,000  Level Albuquerque Center
11:18PM 36.0242 -105.3542 253° West 449 517 43,000  Level Albuquerque Center
11:19PM 35.9850 -105.5050 252° West 456 525 43,000  Level Albuquerque Center
11:20PM 35.9514 -105.6336 252° West 456 525 43,000  Level Albuquerque Center
11:21PM 35.9053 -105.8097 252° West 452 520 43,000  Level Albuquerque Center
11:22PM 35.8658 -105.9578 252° West 455 524 43,000  Level Albuquerque Center
11:23PM 35.8256 -106.1061 252° West 457 526 43,000  Level Albuquerque Center
11:24PM 35.7847 -106.2658 253° West 461 531 43,000  Level Albuquerque Center
11:25PM 35.7456 -106.4092 251° West 462 532 43,000  Level Albuquerque Center
11:26PM 35.7003 -106.5789 252° West 466 536 43,000  Level Albuquerque Center
11:27PM 35.6594 -106.7256 251° West 471 542 43,000  Level Albuquerque Center
11:28PM 35.6158 -106.8892 252° West 468 539 43,000  Level Albuquerque Center
11:29PM 35.5747 -107.0378 251° West 464 534 43,000  Level Albuquerque Center
11:30PM 35.5339 -107.1850 251° West 462 532 43,000  Level Albuquerque Center
11:31PM 35.4886 -107.3444 251° West 458 527 43,000  Level Albuquerque Center
11:32PM 35.4486 -107.4864 251° West 458 527 43,000  Level Albuquerque Center
11:33PM 35.3989 -107.6494 250° West 457 526 43,000  Level Albuquerque Center
11:34PM 35.3558 -107.7903 249° West 459 528 43,000  Level Albuquerque Center
11:35PM 35.3067 -107.9539 250° West 458 527 43,000  Level Albuquerque Center
11:36PM 35.2633 -108.0947 249° West 459 528 43,000  Level Albuquerque Center
11:37PM 35.2214 -108.2333 250° West 456 525 43,000  Level Albuquerque Center
11:38PM 35.1711 -108.3956 249° West 455 524 43,000  Level Albuquerque Center
11:39PM 35.1267 -108.5369 249° West 460 529 43,000  Level Albuquerque Center
11:40PM 35.0764 -108.7006 249° West 461 531 43,000  Level Albuquerque Center
11:41PM 35.0325 -108.8403 249° West 460 529 43,000  Level Albuquerque Center
11:42PM 34.9886 -108.9825 249° West 462 532 43,000 -180 Level Albuquerque Center
11:43PM 34.9369 -109.1475 249° West 465 535 42,700 -1,320 Descending Albuquerque Center
11:44PM 34.8911 -109.2881 248° West 466 536 40,400 -2,520 Descending Albuquerque Center
11:45PM 34.8394 -109.4536 249° West 466 536 37,600 -2,160 Descending Albuquerque Center
11:46PM 34.7917 -109.5983 248° West 475 547 36,000 -840 Descending Albuquerque Center
11:47PM 34.7428 -109.7461 248° West 486 559 36,000  Level Albuquerque Center
11:48PM 34.6861 -109.9200 248° West 493 567 36,000  Level Albuquerque Center
11:49PM 34.6319 -110.0639 245° Southwest 492 566 36,000 -300 Level Albuquerque Center
11:51PM 34.5728 -110.2322 247° West 485 558 35,400 -1,440 Descending Albuquerque Center
11:52PM 34.5200 -110.3575 243° Southwest 436 502 33,100 -2,100 Descending Albuquerque Center
11:53PM 34.4797 -110.4767 248° West 419 482 31,100 -2,220 Descending Albuquerque Center
11:54PM 34.4253 -110.6222 246° West 401 461 28,600 -2,280 Descending Albuquerque Center
11:55PM 34.3769 -110.7367 243° Southwest 386 444 26,500 -1,980 Descending Albuquerque Center
11:56PM 34.3178 -110.8439 236° Southwest 385 443 24,600 -1,920 Descending Albuquerque Center
11:57PM 34.2467 -110.9342 226° Southwest 371 427 22,600 -1,920 Descending Albuquerque Center
11:58PM 34.1778 -111.0231 227° Southwest 365 420 20,700 -1,860 Descending Albuquerque Center
11:59PM 34.1125 -111.1083 227° Southwest 353 406 18,900 -1,800 Descending Albuquerque Center
12:00AM 34.0494 -111.1894 227° Southwest 339 390 17,100 -1,740 Descending Albuquerque Center
12:01AM 33.9889 -111.2681 227° Southwest 326 375 15,400 -1,620 Descending Albuquerque Center
12:02AM 33.9331 -111.3389 226° Southwest 295 339 13,800 -1,740 Descending Albuquerque Center
12:03AM 33.8642 -111.4225 225° Southwest 291 335 11,900 -1,620 Descending Albuquerque Center
12:04AM 33.8000 -111.4744 214° Southwest 279 321 10,600 -1,080 Descending Albuquerque Center
12:05AM 33.7411 -111.5267 216° Southwest 264 304 9,800 -780 Descending Albuquerque Center
12:06AM 33.6881 -111.5717 215° Southwest 235 270 9,100 -780 Descending Albuquerque Center
12:07AM 33.6383 -111.6131 215° Southwest 219 252 8,300 -960 Descending Albuquerque Center
12:08AM 33.5844 -111.6592 215° Southwest 235 270 7,200 -960 Descending Albuquerque Center
12:09AM 33.5300 -111.7044 215° Southwest 237 273 6,400 -900 Descending Albuquerque Center
12:10AM 33.4894 -111.7594 229° Southwest 227 261 5,400 -960 Descending Albuquerque Center
12:11AM 33.4622 -111.8181 241° Southwest 202 232 4,500 -1,080 Descending Albuquerque Center
12:12AM 33.4378 -111.8719 241° Southwest 186 214 3,200 -1,080 Descending Albuquerque Center
12:13AM 33.4333 -111.9000 259° West 135 155 2,700 -780 Descending Phoenix TRACON
12:14AM 33.4333 -111.9500 270° West 120 138 2,000 -720 Descending Phoenix TRACON
12:17AM 33.4333 -112.0000 292° West  Level FlightAware Approximate